sensor_id;sensor_type;location;lat;lon;timestamp;temperature;humidity
29201;DHT22;16244;51.956;12.980;2022-08-02T00:00:03;18.20;99.90
29201;DHT22;16244;51.956;12.980;2022-08-02T00:02:30;18.20;99.90
29201;DHT22;16244;51.956;12.980;2022-08-02T00:04:57;18.20;99.90
29201;DHT22;16244;51.956;12.980;2022-08-02T00:07:25;18.20;99.90
29201;DHT22;16244;51.956;12.980;2022-08-02T00:09:53;18.30;99.90
29201;DHT22;16244;51.956;12.980;2022-08-02T00:12:20;18.30;99.90
29201;DHT22;16244;51.956;12.980;2022-08-02T00:14:47;18.30;99.90
29201;DHT22;16244;51.956;12.980;2022-08-02T00:17:14;18.30;99.90
29201;DHT22;16244;51.956;12.980;2022-08-02T00:19:42;18.30;99.90
29201;DHT22;16244;51.956;12.980;2022-08-02T00:22:09;18.30;99.90
29201;DHT22;16244;51.956;12.980;2022-08-02T00:24:37;18.40;99.90
29201;DHT22;16244;51.956;12.980;2022-08-02T00:27:04;18.30;99.90
29201;DHT22;16244;51.956;12.980;2022-08-02T00:29:33;18.30;99.90
29201;DHT22;16244;51.956;12.980;2022-08-02T00:32:01;18.40;99.90
29201;DHT22;16244;51.956;12.980;2022-08-02T00:34:28;18.40;99.90
29201;DHT22;16244;51.956;12.980;2022-08-02T00:36:55;18.40;99.90
29201;DHT22;16244;51.956;12.980;2022-08-02T00:39:22;18.40;99.90
29201;DHT22;16244;51.956;12.980;2022-08-02T00:41:52;18.30;99.90
29201;DHT22;16244;51.956;12.980;2022-08-02T00:44:20;18.30;99.90
29201;DHT22;16244;51.956;12.980;2022-08-02T00:46:47;18.20;99.90
29201;DHT22;16244;51.956;12.980;2022-08-02T00:49:14;18.20;99.90
29201;DHT22;16244;51.956;12.980;2022-08-02T00:51:42;18.20;99.90
29201;DHT22;16244;51.956;12.980;2022-08-02T00:54:09;18.10;99.90
29201;DHT22;16244;51.956;12.980;2022-08-02T00:56:36;18.10;99.90
29201;DHT22;16244;51.956;12.980;2022-08-02T00:59:04;18.00;99.90
29201;DHT22;16244;51.956;12.980;2022-08-02T01:01:31;18.00;99.90
29201;DHT22;16244;51.956;12.980;2022-08-02T01:04:05;17.90;99.90
29201;DHT22;16244;51.956;12.980;2022-08-02T01:06:33;17.90;99.90
29201;DHT22;16244;51.956;12.980;2022-08-02T01:09:01;17.80;99.90
29201;DHT22;16244;51.956;12.980;2022-08-02T01:11:29;17.70;99.90
29201;DHT22;16244;51.956;12.980;2022-08-02T01:13:59;17.70;99.90
29201;DHT22;16244;51.956;12.980;2022-08-02T01:16:32;17.60;99.90
29201;DHT22;16244;51.956;12.980;2022-08-02T01:19:09;17.60;99.90
29201;DHT22;16244;51.956;12.980;2022-08-02T01:21:50;17.60;99.90
29201;DHT22;16244;51.956;12.980;2022-08-02T01:24:34;17.60;99.90
29201;DHT22;16244;51.956;12.980;2022-08-02T01:27:14;17.60;99.90
29201;DHT22;16244;51.956;12.980;2022-08-02T01:29:52;17.50;99.90
29201;DHT22;16244;51.956;12.980;2022-08-02T01:32:25;17.50;99.90
29201;DHT22;16244;51.956;12.980;2022-08-02T01:35:00;17.50;99.90
29201;DHT22;16244;51.956;12.980;2022-08-02T01:37:33;17.50;99.90
29201;DHT22;16244;51.956;12.980;2022-08-02T01:40:06;17.50;99.90
29201;DHT22;16244;51.956;12.980;2022-08-02T01:42:36;17.40;99.90
29201;DHT22;16244;51.956;12.980;2022-08-02T01:45:07;17.30;99.90
29201;DHT22;16244;51.956;12.980;2022-08-02T01:47:38;17.10;99.90
29201;DHT22;16244;51.956;12.980;2022-08-02T01:50:07;17.00;99.90
29201;DHT22;16244;51.956;12.980;2022-08-02T01:52:38;17.00;99.90
29201;DHT22;16244;51.956;12.980;2022-08-02T01:55:11;17.10;99.90
29201;DHT22;16244;51.956;12.980;2022-08-02T01:57:40;17.00;99.90
29201;DHT22;16244;51.956;12.980;2022-08-02T02:00:11;17.00;99.90
29201;DHT22;16244;51.956;12.980;2022-08-02T02:02:41;17.00;99.90
29201;DHT22;16244;51.956;12.980;2022-08-02T02:05:11;17.10;99.90
29201;DHT22;16244;51.956;12.980;2022-08-02T02:07:40;17.10;99.90
29201;DHT22;16244;51.956;12.980;2022-08-02T02:10:10;17.20;99.90
29201;DHT22;16244;51.956;12.980;2022-08-02T02:12:38;17.20;99.90
29201;DHT22;16244;51.956;12.980;2022-08-02T02:15:09;17.20;99.90
29201;DHT22;16244;51.956;12.980;2022-08-02T02:17:41;17.20;99.90
29201;DHT22;16244;51.956;12.980;2022-08-02T02:20:12;17.20;99.90
29201;DHT22;16244;51.956;12.980;2022-08-02T02:22:40;17.20;99.90
29201;DHT22;16244;51.956;12.980;2022-08-02T02:25:09;17.20;99.90
29201;DHT22;16244;51.956;12.980;2022-08-02T02:27:40;17.10;99.90
29201;DHT22;16244;51.956;12.980;2022-08-02T02:30:10;17.10;99.90
29201;DHT22;16244;51.956;12.980;2022-08-02T02:32:39;17.00;99.90
29201;DHT22;16244;51.956;12.980;2022-08-02T02:35:07;17.00;99.90
29201;DHT22;16244;51.956;12.980;2022-08-02T02:37:37;17.00;99.90
29201;DHT22;16244;51.956;12.980;2022-08-02T02:40:06;17.00;99.90
29201;DHT22;16244;51.956;12.980;2022-08-02T02:42:34;17.00;99.90
29201;DHT22;16244;51.956;12.980;2022-08-02T02:45:02;17.00;99.90
29201;DHT22;16244;51.956;12.980;2022-08-02T02:47:30;16.90;99.90
29201;DHT22;16244;51.956;12.980;2022-08-02T02:49:59;16.90;99.90
29201;DHT22;16244;51.956;12.980;2022-08-02T02:52:27;16.80;99.90
29201;DHT22;16244;51.956;12.980;2022-08-02T02:54:55;16.80;99.90
29201;DHT22;16244;51.956;12.980;2022-08-02T02:57:23;16.70;99.90
29201;DHT22;16244;51.956;12.980;2022-08-02T02:59:50;16.70;99.90
29201;DHT22;16244;51.956;12.980;2022-08-02T03:02:19;16.60;99.90
29201;DHT22;16244;51.956;12.980;2022-08-02T03:04:47;16.60;99.90
29201;DHT22;16244;51.956;12.980;2022-08-02T03:07:15;16.60;99.90
29201;DHT22;16244;51.956;12.980;2022-08-02T03:09:43;16.50;99.90
29201;DHT22;16244;51.956;12.980;2022-08-02T03:12:10;16.50;99.90
29201;DHT22;16244;51.956;12.980;2022-08-02T03:14:40;16.50;99.90
29201;DHT22;16244;51.956;12.980;2022-08-02T03:17:08;16.40;99.90
29201;DHT22;16244;51.956;12.980;2022-08-02T03:19:35;16.40;99.90
29201;DHT22;16244;51.956;12.980;2022-08-02T03:22:02;16.50;99.90
29201;DHT22;16244;51.956;12.980;2022-08-02T03:24:31;16.40;99.90
29201;DHT22;16244;51.956;12.980;2022-08-02T03:26:58;16.40;99.90
29201;DHT22;16244;51.956;12.980;2022-08-02T03:29:25;16.50;99.90
29201;DHT22;16244;51.956;12.980;2022-08-02T03:31:53;16.50;99.90
29201;DHT22;16244;51.956;12.980;2022-08-02T03:34:20;16.50;99.90
29201;DHT22;16244;51.956;12.980;2022-08-02T03:36:49;16.50;99.90
29201;DHT22;16244;51.956;12.980;2022-08-02T03:39:18;16.60;99.90
29201;DHT22;16244;51.956;12.980;2022-08-02T03:41:47;16.70;99.90
29201;DHT22;16244;51.956;12.980;2022-08-02T03:44:15;16.60;99.90
29201;DHT22;16244;51.956;12.980;2022-08-02T03:46:43;16.60;99.90
29201;DHT22;16244;51.956;12.980;2022-08-02T03:49:10;16.70;99.90
29201;DHT22;16244;51.956;12.980;2022-08-02T03:51:41;16.60;99.90
29201;DHT22;16244;51.956;12.980;2022-08-02T03:54:09;16.60;99.90
29201;DHT22;16244;51.956;12.980;2022-08-02T03:56:36;16.60;99.90
29201;DHT22;16244;51.956;12.980;2022-08-02T03:59:09;16.50;99.90
29201;DHT22;16244;51.956;12.980;2022-08-02T04:01:37;16.60;99.90
29201;DHT22;16244;51.956;12.980;2022-08-02T04:04:05;16.60;99.90
29201;DHT22;16244;51.956;12.980;2022-08-02T04:06:32;16.60;99.90
29201;DHT22;16244;51.956;12.980;2022-08-02T04:08:59;16.70;99.90
29201;DHT22;16244;51.956;12.980;2022-08-02T04:11:26;16.70;99.90
29201;DHT22;16244;51.956;12.980;2022-08-02T04:13:58;16.60;99.90
29201;DHT22;16244;51.956;12.980;2022-08-02T04:16:36;16.60;99.90
29201;DHT22;16244;51.956;12.980;2022-08-02T04:19:07;16.60;99.90
29201;DHT22;16244;51.956;12.980;2022-08-02T04:21:36;16.60;99.90
29201;DHT22;16244;51.956;12.980;2022-08-02T04:24:07;16.70;99.90
29201;DHT22;16244;51.956;12.980;2022-08-02T04:26:35;16.70;99.90
29201;DHT22;16244;51.956;12.980;2022-08-02T04:29:04;16.60;99.90
29201;DHT22;16244;51.956;12.980;2022-08-02T04:31:33;16.60;99.90
29201;DHT22;16244;51.956;12.980;2022-08-02T04:34:01;16.70;99.90
29201;DHT22;16244;51.956;12.980;2022-08-02T04:36:29;16.70;99.90
29201;DHT22;16244;51.956;12.980;2022-08-02T04:38:56;16.90;99.90
29201;DHT22;16244;51.956;12.980;2022-08-02T04:41:36;16.90;99.90
29201;DHT22;16244;51.956;12.980;2022-08-02T04:44:03;16.90;99.90
29201;DHT22;16244;51.956;12.980;2022-08-02T04:46:31;16.90;99.90
29201;DHT22;16244;51.956;12.980;2022-08-02T04:48:59;16.80;99.90
29201;DHT22;16244;51.956;12.980;2022-08-02T04:51:26;16.90;99.90
29201;DHT22;16244;51.956;12.980;2022-08-02T04:53:53;17.00;99.90
29201;DHT22;16244;51.956;12.980;2022-08-02T04:56:20;17.00;99.90
29201;DHT22;16244;51.956;12.980;2022-08-02T04:58:47;17.10;99.90
29201;DHT22;16244;51.956;12.980;2022-08-02T05:01:15;17.20;99.90
29201;DHT22;16244;51.956;12.980;2022-08-02T05:03:42;17.20;99.90
29201;DHT22;16244;51.956;12.980;2022-08-02T05:06:10;17.20;99.90
29201;DHT22;16244;51.956;12.980;2022-08-02T05:08:37;17.20;99.90
29201;DHT22;16244;51.956;12.980;2022-08-02T05:11:04;17.40;99.90
29201;DHT22;16244;51.956;12.980;2022-08-02T05:13:31;17.30;99.90
29201;DHT22;16244;51.956;12.980;2022-08-02T05:15:58;17.30;99.90
29201;DHT22;16244;51.956;12.980;2022-08-02T05:18:29;17.30;99.90
29201;DHT22;16244;51.956;12.980;2022-08-02T05:20:56;17.20;99.90
29201;DHT22;16244;51.956;12.980;2022-08-02T05:23:25;17.30;99.90
29201;DHT22;16244;51.956;12.980;2022-08-02T05:25:52;17.30;99.90
29201;DHT22;16244;51.956;12.980;2022-08-02T05:28:19;17.40;99.90
29201;DHT22;16244;51.956;12.980;2022-08-02T05:30:46;17.40;99.90
29201;DHT22;16244;51.956;12.980;2022-08-02T05:33:13;17.50;99.90
29201;DHT22;16244;51.956;12.980;2022-08-02T05:35:40;17.60;99.90
29201;DHT22;16244;51.956;12.980;2022-08-02T05:38:07;17.80;99.90
29201;DHT22;16244;51.956;12.980;2022-08-02T05:40:36;18.00;99.90
29201;DHT22;16244;51.956;12.980;2022-08-02T05:43:10;18.00;99.90
29201;DHT22;16244;51.956;12.980;2022-08-02T05:45:37;18.10;99.90
29201;DHT22;16244;51.956;12.980;2022-08-02T05:48:05;18.20;99.90
29201;DHT22;16244;51.956;12.980;2022-08-02T05:50:33;18.20;99.90
29201;DHT22;16244;51.956;12.980;2022-08-02T05:53:08;18.20;99.90
29201;DHT22;16244;51.956;12.980;2022-08-02T05:55:44;18.20;99.90
29201;DHT22;16244;51.956;12.980;2022-08-02T05:58:20;18.30;99.90
29201;DHT22;16244;51.956;12.980;2022-08-02T06:00:52;18.40;99.90
29201;DHT22;16244;51.956;12.980;2022-08-02T06:03:24;18.50;99.90
29201;DHT22;16244;51.956;12.980;2022-08-02T06:05:58;18.50;99.90
29201;DHT22;16244;51.956;12.980;2022-08-02T06:08:31;18.60;99.90
29201;DHT22;16244;51.956;12.980;2022-08-02T06:11:01;18.70;99.90
29201;DHT22;16244;51.956;12.980;2022-08-02T06:13:31;18.70;99.90
29201;DHT22;16244;51.956;12.980;2022-08-02T06:15:59;18.80;99.90
29201;DHT22;16244;51.956;12.980;2022-08-02T06:18:26;18.90;99.90
29201;DHT22;16244;51.956;12.980;2022-08-02T06:20:55;19.00;99.90
29201;DHT22;16244;51.956;12.980;2022-08-02T06:23:24;19.10;99.90
29201;DHT22;16244;51.956;12.980;2022-08-02T06:25:52;19.40;99.90
29201;DHT22;16244;51.956;12.980;2022-08-02T06:28:21;19.50;99.90
29201;DHT22;16244;51.956;12.980;2022-08-02T06:30:49;19.60;99.90
29201;DHT22;16244;51.956;12.980;2022-08-02T06:33:16;19.60;99.90
29201;DHT22;16244;51.956;12.980;2022-08-02T06:35:45;19.90;99.90
29201;DHT22;16244;51.956;12.980;2022-08-02T06:38:21;20.10;99.90
29201;DHT22;16244;51.956;12.980;2022-08-02T06:40:55;20.30;99.90
29201;DHT22;16244;51.956;12.980;2022-08-02T06:43:29;20.30;99.90
29201;DHT22;16244;51.956;12.980;2022-08-02T06:45:57;20.20;99.90
29201;DHT22;16244;51.956;12.980;2022-08-02T06:48:24;20.20;99.90
29201;DHT22;16244;51.956;12.980;2022-08-02T06:50:51;20.20;99.90
29201;DHT22;16244;51.956;12.980;2022-08-02T06:53:18;20.30;99.90
29201;DHT22;16244;51.956;12.980;2022-08-02T06:55:45;20.30;99.90
29201;DHT22;16244;51.956;12.980;2022-08-02T06:58:13;20.40;99.90
29201;DHT22;16244;51.956;12.980;2022-08-02T07:00:42;20.50;99.90
29201;DHT22;16244;51.956;12.980;2022-08-02T07:03:09;20.60;99.90
29201;DHT22;16244;51.956;12.980;2022-08-02T07:05:36;20.90;99.90
29201;DHT22;16244;51.956;12.980;2022-08-02T07:08:04;21.10;99.90
29201;DHT22;16244;51.956;12.980;2022-08-02T07:10:31;21.40;99.90
29201;DHT22;16244;51.956;12.980;2022-08-02T07:12:58;21.50;99.90
29201;DHT22;16244;51.956;12.980;2022-08-02T07:15:25;21.60;99.90
29201;DHT22;16244;51.956;12.980;2022-08-02T07:17:54;21.60;99.90
29201;DHT22;16244;51.956;12.980;2022-08-02T07:20:21;21.70;99.90
29201;DHT22;16244;51.956;12.980;2022-08-02T07:22:48;21.90;99.90
29201;DHT22;16244;51.956;12.980;2022-08-02T07:25:15;21.90;99.90
29201;DHT22;16244;51.956;12.980;2022-08-02T07:27:43;22.00;99.90
29201;DHT22;16244;51.956;12.980;2022-08-02T07:30:10;22.00;99.90
29201;DHT22;16244;51.956;12.980;2022-08-02T07:32:38;22.20;99.90
29201;DHT22;16244;51.956;12.980;2022-08-02T07:35:07;22.20;99.90
29201;DHT22;16244;51.956;12.980;2022-08-02T07:37:35;22.00;99.90
29201;DHT22;16244;51.956;12.980;2022-08-02T07:40:04;21.90;99.90
29201;DHT22;16244;51.956;12.980;2022-08-02T07:42:32;22.10;99.90
29201;DHT22;16244;51.956;12.980;2022-08-02T07:44:59;22.30;99.90
29201;DHT22;16244;51.956;12.980;2022-08-02T07:47:26;22.40;99.90
29201;DHT22;16244;51.956;12.980;2022-08-02T07:49:53;22.60;99.90
29201;DHT22;16244;51.956;12.980;2022-08-02T07:52:21;22.80;99.90
29201;DHT22;16244;51.956;12.980;2022-08-02T07:54:49;23.20;99.90
29201;DHT22;16244;51.956;12.980;2022-08-02T07:57:16;23.60;99.90
29201;DHT22;16244;51.956;12.980;2022-08-02T07:59:43;23.60;99.90
29201;DHT22;16244;51.956;12.980;2022-08-02T08:02:11;23.60;99.90
29201;DHT22;16244;51.956;12.980;2022-08-02T08:04:39;23.70;99.90
29201;DHT22;16244;51.956;12.980;2022-08-02T08:07:06;23.80;99.90
29201;DHT22;16244;51.956;12.980;2022-08-02T08:09:36;24.20;99.90
29201;DHT22;16244;51.956;12.980;2022-08-02T08:12:05;24.50;99.90
29201;DHT22;16244;51.956;12.980;2022-08-02T08:14:32;24.70;99.90
29201;DHT22;16244;51.956;12.980;2022-08-02T08:16:59;24.80;99.90
29201;DHT22;16244;51.956;12.980;2022-08-02T08:19:26;25.00;99.90
29201;DHT22;16244;51.956;12.980;2022-08-02T08:21:53;25.00;99.90
29201;DHT22;16244;51.956;12.980;2022-08-02T08:24:21;25.10;99.90
29201;DHT22;16244;51.956;12.980;2022-08-02T08:26:49;25.40;99.90
29201;DHT22;16244;51.956;12.980;2022-08-02T08:29:16;25.30;99.90
29201;DHT22;16244;51.956;12.980;2022-08-02T08:31:43;25.40;99.90
29201;DHT22;16244;51.956;12.980;2022-08-02T08:34:10;25.40;99.90
29201;DHT22;16244;51.956;12.980;2022-08-02T08:36:37;25.50;99.90
29201;DHT22;16244;51.956;12.980;2022-08-02T08:39:05;25.70;99.90
29201;DHT22;16244;51.956;12.980;2022-08-02T08:41:32;25.90;99.90
29201;DHT22;16244;51.956;12.980;2022-08-02T08:44:00;25.90;99.90
29201;DHT22;16244;51.956;12.980;2022-08-02T08:46:29;25.80;99.90
29201;DHT22;16244;51.956;12.980;2022-08-02T08:48:59;25.80;99.90
29201;DHT22;16244;51.956;12.980;2022-08-02T08:51:29;26.30;99.90
29201;DHT22;16244;51.956;12.980;2022-08-02T08:54:01;26.70;99.90
29201;DHT22;16244;51.956;12.980;2022-08-02T08:56:32;26.90;99.90
29201;DHT22;16244;51.956;12.980;2022-08-02T08:59:01;26.70;99.90
29201;DHT22;16244;51.956;12.980;2022-08-02T09:01:29;27.00;99.90
29201;DHT22;16244;51.956;12.980;2022-08-02T09:03:57;27.30;99.90
29201;DHT22;16244;51.956;12.980;2022-08-02T09:06:24;27.30;99.90
29201;DHT22;16244;51.956;12.980;2022-08-02T09:08:51;27.70;99.90
29201;DHT22;16244;51.956;12.980;2022-08-02T09:11:22;27.70;99.90
29201;DHT22;16244;51.956;12.980;2022-08-02T09:13:51;27.70;99.90
29201;DHT22;16244;51.956;12.980;2022-08-02T09:16:31;27.70;99.90
29201;DHT22;16244;51.956;12.980;2022-08-02T09:18:59;27.40;99.90
29201;DHT22;16244;51.956;12.980;2022-08-02T09:21:34;27.30;99.90
29201;DHT22;16244;51.956;12.980;2022-08-02T09:24:02;27.30;99.90
29201;DHT22;16244;51.956;12.980;2022-08-02T09:26:40;27.20;99.90
29201;DHT22;16244;51.956;12.980;2022-08-02T09:29:08;27.40;99.90
29201;DHT22;16244;51.956;12.980;2022-08-02T09:31:37;27.70;99.90
29201;DHT22;16244;51.956;12.980;2022-08-02T09:34:04;28.00;99.90
29201;DHT22;16244;51.956;12.980;2022-08-02T09:36:37;28.10;99.90
29201;DHT22;16244;51.956;12.980;2022-08-02T09:39:06;27.70;99.90
29201;DHT22;16244;51.956;12.980;2022-08-02T09:41:35;27.30;99.90
29201;DHT22;16244;51.956;12.980;2022-08-02T09:44:04;27.10;99.90
29201;DHT22;16244;51.956;12.980;2022-08-02T09:46:34;27.30;99.90
29201;DHT22;16244;51.956;12.980;2022-08-02T09:49:06;27.40;99.90
29201;DHT22;16244;51.956;12.980;2022-08-02T09:51:36;27.20;99.90
29201;DHT22;16244;51.956;12.980;2022-08-02T09:54:06;27.10;99.90
29201;DHT22;16244;51.956;12.980;2022-08-02T09:56:42;26.80;99.90
29201;DHT22;16244;51.956;12.980;2022-08-02T09:59:09;26.50;99.90
29201;DHT22;16244;51.956;12.980;2022-08-02T10:01:37;26.20;99.90
29201;DHT22;16244;51.956;12.980;2022-08-02T10:04:07;26.60;99.90
29201;DHT22;16244;51.956;12.980;2022-08-02T10:06:36;27.40;99.90
29201;DHT22;16244;51.956;12.980;2022-08-02T10:09:05;28.10;99.90
29201;DHT22;16244;51.956;12.980;2022-08-02T10:11:33;28.50;99.90
29201;DHT22;16244;51.956;12.980;2022-08-02T10:14:02;29.00;99.90
29201;DHT22;16244;51.956;12.980;2022-08-02T10:16:30;29.50;99.90
29201;DHT22;16244;51.956;12.980;2022-08-02T10:18:59;30.00;99.90
29201;DHT22;16244;51.956;12.980;2022-08-02T10:21:37;30.10;97.40
29201;DHT22;16244;51.956;12.980;2022-08-02T10:24:07;29.70;97.40
29201;DHT22;16244;51.956;12.980;2022-08-02T10:26:37;29.50;99.00
29201;DHT22;16244;51.956;12.980;2022-08-02T10:29:04;29.50;99.90
29201;DHT22;16244;51.956;12.980;2022-08-02T10:31:36;29.50;99.60
29201;DHT22;16244;51.956;12.980;2022-08-02T10:34:07;29.40;98.80
29201;DHT22;16244;51.956;12.980;2022-08-02T10:36:38;29.00;98.60
29201;DHT22;16244;51.956;12.980;2022-08-02T10:39:06;28.40;98.90
29201;DHT22;16244;51.956;12.980;2022-08-02T10:41:41;28.00;97.50
29201;DHT22;16244;51.956;12.980;2022-08-02T10:44:19;28.00;97.90
29201;DHT22;16244;51.956;12.980;2022-08-02T10:46:47;28.30;98.10
29201;DHT22;16244;51.956;12.980;2022-08-02T10:49:16;28.50;98.60
29201;DHT22;16244;51.956;12.980;2022-08-02T10:52:04;28.70;97.90
29201;DHT22;16244;51.956;12.980;2022-08-02T10:54:34;29.20;99.90
29201;DHT22;16244;51.956;12.980;2022-08-02T10:57:02;29.50;97.50
29201;DHT22;16244;51.956;12.980;2022-08-02T10:59:39;29.80;97.90
29201;DHT22;16244;51.956;12.980;2022-08-02T11:02:06;29.60;94.80
29201;DHT22;16244;51.956;12.980;2022-08-02T11:05:01;29.30;96.60
29201;DHT22;16244;51.956;12.980;2022-08-02T11:07:35;29.20;97.50
29201;DHT22;16244;51.956;12.980;2022-08-02T11:10:29;29.20;95.80
29201;DHT22;16244;51.956;12.980;2022-08-02T11:13:06;29.30;96.50
29201;DHT22;16244;51.956;12.980;2022-08-02T11:15:52;29.60;97.40
29201;DHT22;16244;51.956;12.980;2022-08-02T11:18:21;29.90;95.50
29201;DHT22;16244;51.956;12.980;2022-08-02T11:21:19;29.60;94.90
29201;DHT22;16244;51.956;12.980;2022-08-02T11:23:48;29.50;95.20
29201;DHT22;16244;51.956;12.980;2022-08-02T11:26:40;29.90;97.20
29201;DHT22;16244;51.956;12.980;2022-08-02T11:29:08;30.10;95.40
29201;DHT22;16244;51.956;12.980;2022-08-02T11:31:39;30.40;95.10
29201;DHT22;16244;51.956;12.980;2022-08-02T11:34:07;30.40;95.50
29201;DHT22;16244;51.956;12.980;2022-08-02T11:36:45;30.50;94.00
29201;DHT22;16244;51.956;12.980;2022-08-02T11:39:16;30.60;96.20
29201;DHT22;16244;51.956;12.980;2022-08-02T11:41:48;30.40;92.20
29201;DHT22;16244;51.956;12.980;2022-08-02T11:44:15;30.30;92.80
29201;DHT22;16244;51.956;12.980;2022-08-02T11:46:43;30.00;92.10
29201;DHT22;16244;51.956;12.980;2022-08-02T11:49:11;30.10;92.50
29201;DHT22;16244;51.956;12.980;2022-08-02T11:51:49;30.00;92.20
29201;DHT22;16244;51.956;12.980;2022-08-02T11:54:24;30.10;93.20
29201;DHT22;16244;51.956;12.980;2022-08-02T11:56:51;30.30;93.20
29201;DHT22;16244;51.956;12.980;2022-08-02T11:59:18;30.50;93.80
29201;DHT22;16244;51.956;12.980;2022-08-02T12:01:45;30.70;92.50
29201;DHT22;16244;51.956;12.980;2022-08-02T12:04:16;31.00;92.10
29201;DHT22;16244;51.956;12.980;2022-08-02T12:06:52;31.10;91.30
29201;DHT22;16244;51.956;12.980;2022-08-02T12:09:21;30.80;90.80
29201;DHT22;16244;51.956;12.980;2022-08-02T12:11:49;30.50;90.20
29201;DHT22;16244;51.956;12.980;2022-08-02T12:14:17;30.30;87.60
29201;DHT22;16244;51.956;12.980;2022-08-02T12:16:45;30.30;88.80
29201;DHT22;16244;51.956;12.980;2022-08-02T12:19:31;30.10;84.20
29201;DHT22;16244;51.956;12.980;2022-08-02T12:22:09;30.20;89.60
29201;DHT22;16244;51.956;12.980;2022-08-02T12:24:40;30.40;88.50
29201;DHT22;16244;51.956;12.980;2022-08-02T12:27:07;30.60;87.70
29201;DHT22;16244;51.956;12.980;2022-08-02T12:29:37;30.70;86.90
29201;DHT22;16244;51.956;12.980;2022-08-02T12:32:05;30.80;84.60
29201;DHT22;16244;51.956;12.980;2022-08-02T12:34:33;30.10;83.90
29201;DHT22;16244;51.956;12.980;2022-08-02T12:37:03;29.90;90.90
29201;DHT22;16244;51.956;12.980;2022-08-02T12:39:35;29.60;90.90
29201;DHT22;16244;51.956;12.980;2022-08-02T12:42:06;29.40;89.90
29201;DHT22;16244;51.956;12.980;2022-08-02T12:44:35;29.30;89.50
29201;DHT22;16244;51.956;12.980;2022-08-02T12:47:04;29.10;87.30
29201;DHT22;16244;51.956;12.980;2022-08-02T12:49:32;29.00;87.20
29201;DHT22;16244;51.956;12.980;2022-08-02T12:51:59;28.70;90.80
29201;DHT22;16244;51.956;12.980;2022-08-02T12:54:30;28.70;91.60
29201;DHT22;16244;51.956;12.980;2022-08-02T12:57:09;28.60;90.20
29201;DHT22;16244;51.956;12.980;2022-08-02T12:59:38;28.60;91.20
29201;DHT22;16244;51.956;12.980;2022-08-02T13:02:07;28.50;90.20
29201;DHT22;16244;51.956;12.980;2022-08-02T13:04:36;28.50;90.30
29201;DHT22;16244;51.956;12.980;2022-08-02T13:07:03;28.40;89.10
29201;DHT22;16244;51.956;12.980;2022-08-02T13:09:35;28.40;90.30
29201;DHT22;16244;51.956;12.980;2022-08-02T13:12:03;28.20;85.60
29201;DHT22;16244;51.956;12.980;2022-08-02T13:14:32;28.10;88.50
29201;DHT22;16244;51.956;12.980;2022-08-02T13:16:59;28.10;90.60
29201;DHT22;16244;51.956;12.980;2022-08-02T13:19:26;28.30;92.20
29201;DHT22;16244;51.956;12.980;2022-08-02T13:21:53;28.40;90.70
29201;DHT22;16244;51.956;12.980;2022-08-02T13:24:20;28.50;90.00
29201;DHT22;16244;51.956;12.980;2022-08-02T13:26:48;28.50;90.50
29201;DHT22;16244;51.956;12.980;2022-08-02T13:29:16;28.60;90.40
29201;DHT22;16244;51.956;12.980;2022-08-02T13:31:46;28.90;90.90
29201;DHT22;16244;51.956;12.980;2022-08-02T13:34:13;29.20;86.90
29201;DHT22;16244;51.956;12.980;2022-08-02T13:36:41;29.30;88.10
29201;DHT22;16244;51.956;12.980;2022-08-02T13:39:10;29.50;86.40
29201;DHT22;16244;51.956;12.980;2022-08-02T13:41:38;29.80;86.00
29201;DHT22;16244;51.956;12.980;2022-08-02T13:44:05;29.90;84.40
29201;DHT22;16244;51.956;12.980;2022-08-02T13:46:33;30.20;83.50
29201;DHT22;16244;51.956;12.980;2022-08-02T13:49:02;30.50;81.80
29201;DHT22;16244;51.956;12.980;2022-08-02T13:51:29;30.60;79.40
29201;DHT22;16244;51.956;12.980;2022-08-02T13:53:57;30.70;76.70
29201;DHT22;16244;51.956;12.980;2022-08-02T13:56:25;31.10;79.70
29201;DHT22;16244;51.956;12.980;2022-08-02T13:58:52;31.30;72.40
29201;DHT22;16244;51.956;12.980;2022-08-02T14:01:20;31.40;75.10
29201;DHT22;16244;51.956;12.980;2022-08-02T14:03:47;31.50;76.50
29201;DHT22;16244;51.956;12.980;2022-08-02T14:06:15;31.50;73.80
29201;DHT22;16244;51.956;12.980;2022-08-02T14:08:42;31.50;72.30
29201;DHT22;16244;51.956;12.980;2022-08-02T14:11:10;31.60;69.20
29201;DHT22;16244;51.956;12.980;2022-08-02T14:13:37;31.50;70.30
29201;DHT22;16244;51.956;12.980;2022-08-02T14:16:04;31.30;75.10
29201;DHT22;16244;51.956;12.980;2022-08-02T14:18:31;31.40;72.30
29201;DHT22;16244;51.956;12.980;2022-08-02T14:20:58;31.30;74.10
29201;DHT22;16244;51.956;12.980;2022-08-02T14:23:27;30.90;72.60
29201;DHT22;16244;51.956;12.980;2022-08-02T14:25:55;30.60;73.30
29201;DHT22;16244;51.956;12.980;2022-08-02T14:28:22;30.30;73.30
29201;DHT22;16244;51.956;12.980;2022-08-02T14:30:50;30.10;75.10
29201;DHT22;16244;51.956;12.980;2022-08-02T14:33:17;30.10;77.30
29201;DHT22;16244;51.956;12.980;2022-08-02T14:35:44;30.00;77.80
29201;DHT22;16244;51.956;12.980;2022-08-02T14:38:11;30.10;76.60
29201;DHT22;16244;51.956;12.980;2022-08-02T14:40:40;30.40;75.10
29201;DHT22;16244;51.956;12.980;2022-08-02T14:43:07;30.80;71.10
29201;DHT22;16244;51.956;12.980;2022-08-02T14:45:34;31.00;72.10
29201;DHT22;16244;51.956;12.980;2022-08-02T14:48:01;31.20;70.30
29201;DHT22;16244;51.956;12.980;2022-08-02T14:50:28;31.10;68.00
29201;DHT22;16244;51.956;12.980;2022-08-02T14:52:55;31.20;72.40
29201;DHT22;16244;51.956;12.980;2022-08-02T14:55:30;30.90;71.50
29201;DHT22;16244;51.956;12.980;2022-08-02T14:57:59;31.00;72.30
29201;DHT22;16244;51.956;12.980;2022-08-02T15:00:26;30.90;71.00
29201;DHT22;16244;51.956;12.980;2022-08-02T15:02:53;30.70;71.20
29201;DHT22;16244;51.956;12.980;2022-08-02T15:05:20;30.50;71.70
29201;DHT22;16244;51.956;12.980;2022-08-02T15:07:47;30.50;71.70
29201;DHT22;16244;51.956;12.980;2022-08-02T15:10:14;30.40;71.10
29201;DHT22;16244;51.956;12.980;2022-08-02T15:12:41;30.30;71.40
29201;DHT22;16244;51.956;12.980;2022-08-02T15:15:10;30.60;72.50
29201;DHT22;16244;51.956;12.980;2022-08-02T15:17:37;31.00;71.40
29201;DHT22;16244;51.956;12.980;2022-08-02T15:20:05;31.10;70.00
29201;DHT22;16244;51.956;12.980;2022-08-02T15:22:33;30.90;68.60
29201;DHT22;16244;51.956;12.980;2022-08-02T15:25:00;30.60;70.90
29201;DHT22;16244;51.956;12.980;2022-08-02T15:27:27;30.70;75.20